sensor_id;sensor_type;location;lat;lon;timestamp;temperature;humidity
19330;DHT22;9799;48.214;16.388;2023-03-31T00:00:23;12.40;99.90
19330;DHT22;9799;48.214;16.388;2023-03-31T00:03:44;12.40;99.90
19330;DHT22;9799;48.214;16.388;2023-03-31T00:07:07;12.30;99.90
19330;DHT22;9799;48.214;16.388;2023-03-31T00:10:29;12.30;99.90
19330;DHT22;9799;48.214;16.388;2023-03-31T00:13:52;12.30;99.90
19330;DHT22;9799;48.214;16.388;2023-03-31T00:17:13;12.20;99.90
19330;DHT22;9799;48.214;16.388;2023-03-31T00:20:35;12.20;99.90
19330;DHT22;9799;48.214;16.388;2023-03-31T00:23:59;12.30;99.90
19330;DHT22;9799;48.214;16.388;2023-03-31T00:27:21;12.30;99.90
19330;DHT22;9799;48.214;16.388;2023-03-31T00:30:42;12.30;99.90
19330;DHT22;9799;48.214;16.388;2023-03-31T00:34:03;12.30;99.90
19330;DHT22;9799;48.214;16.388;2023-03-31T00:37:25;12.30;99.90
19330;DHT22;9799;48.214;16.388;2023-03-31T00:40:48;12.30;99.90
19330;DHT22;9799;48.214;16.388;2023-03-31T00:44:12;12.30;99.90
19330;DHT22;9799;48.214;16.388;2023-03-31T00:47:34;12.30;99.90
19330;DHT22;9799;48.214;16.388;2023-03-31T00:50:56;12.20;99.90
19330;DHT22;9799;48.214;16.388;2023-03-31T00:54:21;12.00;99.90
19330;DHT22;9799;48.214;16.388;2023-03-31T00:57:46;12.00;99.90
19330;DHT22;9799;48.214;16.388;2023-03-31T01:01:12;12.00;99.90
19330;DHT22;9799;48.214;16.388;2023-03-31T01:04:38;12.00;99.90
19330;DHT22;9799;48.214;16.388;2023-03-31T01:08:01;12.00;99.90
19330;DHT22;9799;48.214;16.388;2023-03-31T01:11:26;12.00;99.90
19330;DHT22;9799;48.214;16.388;2023-03-31T01:14:51;11.90;99.90
19330;DHT22;9799;48.214;16.388;2023-03-31T01:18:14;11.90;99.90
19330;DHT22;9799;48.214;16.388;2023-03-31T01:22:15;11.90;99.90
19330;DHT22;9799;48.214;16.388;2023-03-31T01:30:09;11.90;99.90
19330;DHT22;9799;48.214;16.388;2023-03-31T01:34:05;11.90;99.90
19330;DHT22;9799;48.214;16.388;2023-03-31T01:41:52;11.90;99.90
19330;DHT22;9799;48.214;16.388;2023-03-31T01:45:25;12.00;99.90
19330;DHT22;9799;48.214;16.388;2023-03-31T01:48:56;12.00;99.90
19330;DHT22;9799;48.214;16.388;2023-03-31T01:52:21;11.90;99.90
19330;DHT22;9799;48.214;16.388;2023-03-31T01:55:49;11.90;99.90
19330;DHT22;9799;48.214;16.388;2023-03-31T01:59:19;11.90;99.90
19330;DHT22;9799;48.214;16.388;2023-03-31T02:02:47;11.80;99.90
19330;DHT22;9799;48.214;16.388;2023-03-31T02:06:13;11.80;99.90
19330;DHT22;9799;48.214;16.388;2023-03-31T02:09:39;11.80;99.90
19330;DHT22;9799;48.214;16.388;2023-03-31T02:13:03;11.80;99.90
19330;DHT22;9799;48.214;16.388;2023-03-31T02:16:28;11.80;99.90
19330;DHT22;9799;48.214;16.388;2023-03-31T02:19:54;11.90;99.90
19330;DHT22;9799;48.214;16.388;2023-03-31T02:23:20;11.90;99.90
19330;DHT22;9799;48.214;16.388;2023-03-31T02:26:51;11.90;99.90
19330;DHT22;9799;48.214;16.388;2023-03-31T02:30:13;11.80;99.90
19330;DHT22;9799;48.214;16.388;2023-03-31T02:33:36;11.80;99.90
19330;DHT22;9799;48.214;16.388;2023-03-31T02:36:57;11.80;99.90
19330;DHT22;9799;48.214;16.388;2023-03-31T02:40:21;11.70;99.90
19330;DHT22;9799;48.214;16.388;2023-03-31T02:43:46;11.70;99.90
19330;DHT22;9799;48.214;16.388;2023-03-31T02:47:09;11.70;99.90
19330;DHT22;9799;48.214;16.388;2023-03-31T02:50:39;11.70;99.90
19330;DHT22;9799;48.214;16.388;2023-03-31T02:54:29;11.70;99.90
19330;DHT22;9799;48.214;16.388;2023-03-31T03:02:06;11.70;99.90
19330;DHT22;9799;48.214;16.388;2023-03-31T03:05:34;11.70;99.90
19330;DHT22;9799;48.214;16.388;2023-03-31T03:09:06;11.70;99.90
19330;DHT22;9799;48.214;16.388;2023-03-31T03:12:32;11.70;99.90
19330;DHT22;9799;48.214;16.388;2023-03-31T03:16:02;11.70;99.90
19330;DHT22;9799;48.214;16.388;2023-03-31T03:19:24;11.70;99.90
19330;DHT22;9799;48.214;16.388;2023-03-31T03:22:47;11.60;99.90
19330;DHT22;9799;48.214;16.388;2023-03-31T03:26:08;11.50;99.90
19330;DHT22;9799;48.214;16.388;2023-03-31T03:29:29;11.40;99.90
19330;DHT22;9799;48.214;16.388;2023-03-31T03:32:50;11.40;99.90
19330;DHT22;9799;48.214;16.388;2023-03-31T03:36:13;11.30;99.90
19330;DHT22;9799;48.214;16.388;2023-03-31T03:39:35;11.30;99.90
19330;DHT22;9799;48.214;16.388;2023-03-31T03:42:57;11.30;99.90
19330;DHT22;9799;48.214;16.388;2023-03-31T03:46:18;11.30;99.90
19330;DHT22;9799;48.214;16.388;2023-03-31T03:49:39;11.30;99.90
19330;DHT22;9799;48.214;16.388;2023-03-31T03:53:00;11.20;99.90
19330;DHT22;9799;48.214;16.388;2023-03-31T03:56:23;11.20;99.90
19330;DHT22;9799;48.214;16.388;2023-03-31T03:59:45;11.20;99.90
19330;DHT22;9799;48.214;16.388;2023-03-31T04:03:06;11.20;99.90
19330;DHT22;9799;48.214;16.388;2023-03-31T04:06:27;11.10;99.90
19330;DHT22;9799;48.214;16.388;2023-03-31T04:09:48;11.10;99.90
19330;DHT22;9799;48.214;16.388;2023-03-31T04:13:11;11.00;99.90
19330;DHT22;9799;48.214;16.388;2023-03-31T04:16:32;11.00;99.90
19330;DHT22;9799;48.214;16.388;2023-03-31T04:19:54;11.00;99.90
19330;DHT22;9799;48.214;16.388;2023-03-31T04:23:20;10.90;99.90
19330;DHT22;9799;48.214;16.388;2023-03-31T04:26:45;10.90;99.90
19330;DHT22;9799;48.214;16.388;2023-03-31T04:30:12;10.90;99.90
19330;DHT22;9799;48.214;16.388;2023-03-31T04:33:41;10.90;99.90
19330;DHT22;9799;48.214;16.388;2023-03-31T04:37:04;10.90;99.90
19330;DHT22;9799;48.214;16.388;2023-03-31T04:40:29;10.80;99.90
19330;DHT22;9799;48.214;16.388;2023-03-31T04:43:50;10.80;99.90
19330;DHT22;9799;48.214;16.388;2023-03-31T04:47:13;10.80;99.90
19330;DHT22;9799;48.214;16.388;2023-03-31T04:50:34;10.80;99.90
19330;DHT22;9799;48.214;16.388;2023-03-31T04:53:55;10.80;99.90
19330;DHT22;9799;48.214;16.388;2023-03-31T04:57:17;10.90;99.90
19330;DHT22;9799;48.214;16.388;2023-03-31T05:00:38;11.00;99.90
19330;DHT22;9799;48.214;16.388;2023-03-31T05:04:00;10.90;99.90
19330;DHT22;9799;48.214;16.388;2023-03-31T05:07:22;10.90;99.90
19330;DHT22;9799;48.214;16.388;2023-03-31T05:10:43;10.90;99.90
19330;DHT22;9799;48.214;16.388;2023-03-31T05:14:05;10.90;99.90
19330;DHT22;9799;48.214;16.388;2023-03-31T05:17:26;10.90;99.90
19330;DHT22;9799;48.214;16.388;2023-03-31T05:20:48;10.90;99.90
19330;DHT22;9799;48.214;16.388;2023-03-31T05:24:10;10.90;99.90
19330;DHT22;9799;48.214;16.388;2023-03-31T05:27:32;11.00;99.90
19330;DHT22;9799;48.214;16.388;2023-03-31T05:30:53;11.10;99.90
19330;DHT22;9799;48.214;16.388;2023-03-31T05:34:15;11.00;99.90
19330;DHT22;9799;48.214;16.388;2023-03-31T05:37:37;11.00;99.90
19330;DHT22;9799;48.214;16.388;2023-03-31T05:40:58;11.10;99.90
19330;DHT22;9799;48.214;16.388;2023-03-31T05:44:19;11.20;99.90
19330;DHT22;9799;48.214;16.388;2023-03-31T05:47:41;11.30;99.90
19330;DHT22;9799;48.214;16.388;2023-03-31T05:51:02;11.20;99.90
19330;DHT22;9799;48.214;16.388;2023-03-31T05:54:26;11.20;99.90
19330;DHT22;9799;48.214;16.388;2023-03-31T05:57:47;11.30;99.90
19330;DHT22;9799;48.214;16.388;2023-03-31T06:01:10;11.40;99.90
19330;DHT22;9799;48.214;16.388;2023-03-31T06:04:31;11.40;99.90
19330;DHT22;9799;48.214;16.388;2023-03-31T06:07:53;11.40;99.90
19330;DHT22;9799;48.214;16.388;2023-03-31T06:11:17;11.40;99.90
19330;DHT22;9799;48.214;16.388;2023-03-31T06:14:39;11.40;99.90
19330;DHT22;9799;48.214;16.388;2023-03-31T06:18:00;11.50;99.90
19330;DHT22;9799;48.214;16.388;2023-03-31T06:21:22;11.60;99.90
19330;DHT22;9799;48.214;16.388;2023-03-31T06:24:43;11.70;99.90
19330;DHT22;9799;48.214;16.388;2023-03-31T06:28:06;11.80;99.90
19330;DHT22;9799;48.214;16.388;2023-03-31T06:31:27;12.00;99.90
19330;DHT22;9799;48.214;16.388;2023-03-31T06:34:48;12.10;99.90
19330;DHT22;9799;48.214;16.388;2023-03-31T06:38:09;12.20;99.90
19330;DHT22;9799;48.214;16.388;2023-03-31T06:41:30;12.30;99.90
19330;DHT22;9799;48.214;16.388;2023-03-31T06:44:53;12.40;99.90
19330;DHT22;9799;48.214;16.388;2023-03-31T06:48:14;12.60;99.90
19330;DHT22;9799;48.214;16.388;2023-03-31T06:51:36;12.80;99.90
19330;DHT22;9799;48.214;16.388;2023-03-31T06:54:57;12.90;99.90
19330;DHT22;9799;48.214;16.388;2023-03-31T06:58:19;12.90;99.90
19330;DHT22;9799;48.214;16.388;2023-03-31T07:01:42;12.90;99.90
19330;DHT22;9799;48.214;16.388;2023-03-31T07:05:05;13.10;99.90
19330;DHT22;9799;48.214;16.388;2023-03-31T07:08:27;13.20;99.90
19330;DHT22;9799;48.214;16.388;2023-03-31T07:11:49;13.20;99.90
19330;DHT22;9799;48.214;16.388;2023-03-31T07:15:10;13.10;99.90
19330;DHT22;9799;48.214;16.388;2023-03-31T07:18:33;13.20;99.90
19330;DHT22;9799;48.214;16.388;2023-03-31T07:21:55;13.30;99.90
19330;DHT22;9799;48.214;16.388;2023-03-31T07:25:16;13.40;99.90
19330;DHT22;9799;48.214;16.388;2023-03-31T07:28:38;13.50;99.90
19330;DHT22;9799;48.214;16.388;2023-03-31T07:31:59;13.60;99.90
19330;DHT22;9799;48.214;16.388;2023-03-31T07:35:22;13.60;99.90
19330;DHT22;9799;48.214;16.388;2023-03-31T07:38:45;13.70;99.90
19330;DHT22;9799;48.214;16.388;2023-03-31T07:42:08;13.70;99.90
19330;DHT22;9799;48.214;16.388;2023-03-31T07:45:29;13.80;99.90
19330;DHT22;9799;48.214;16.388;2023-03-31T07:48:51;13.80;99.90
19330;DHT22;9799;48.214;16.388;2023-03-31T07:52:14;13.90;99.90
19330;DHT22;9799;48.214;16.388;2023-03-31T07:55:36;13.90;99.90
19330;DHT22;9799;48.214;16.388;2023-03-31T07:58:57;13.90;99.90
19330;DHT22;9799;48.214;16.388;2023-03-31T08:02:18;14.00;99.90
19330;DHT22;9799;48.214;16.388;2023-03-31T08:05:39;14.30;99.90
19330;DHT22;9799;48.214;16.388;2023-03-31T08:09:03;14.50;99.90
19330;DHT22;9799;48.214;16.388;2023-03-31T08:12:25;14.50;99.90
19330;DHT22;9799;48.214;16.388;2023-03-31T08:15:47;14.60;99.90
19330;DHT22;9799;48.214;16.388;2023-03-31T08:19:08;14.50;99.90
19330;DHT22;9799;48.214;16.388;2023-03-31T08:22:29;14.50;99.90
19330;DHT22;9799;48.214;16.388;2023-03-31T08:25:51;14.50;99.90
19330;DHT22;9799;48.214;16.388;2023-03-31T08:29:13;14.60;99.90
19330;DHT22;9799;48.214;16.388;2023-03-31T08:32:34;14.60;99.90
19330;DHT22;9799;48.214;16.388;2023-03-31T08:35:56;14.70;99.90
19330;DHT22;9799;48.214;16.388;2023-03-31T08:39:17;14.60;99.90
19330;DHT22;9799;48.214;16.388;2023-03-31T08:42:42;14.50;99.90
19330;DHT22;9799;48.214;16.388;2023-03-31T08:46:08;14.60;99.90
19330;DHT22;9799;48.214;16.388;2023-03-31T08:49:36;14.70;99.90
19330;DHT22;9799;48.214;16.388;2023-03-31T08:53:03;14.80;99.90
19330;DHT22;9799;48.214;16.388;2023-03-31T08:56:26;14.80;99.90
19330;DHT22;9799;48.214;16.388;2023-03-31T08:59:49;14.70;99.90
19330;DHT22;9799;48.214;16.388;2023-03-31T09:03:17;14.70;99.90
19330;DHT22;9799;48.214;16.388;2023-03-31T09:06:45;14.70;99.90
19330;DHT22;9799;48.214;16.388;2023-03-31T09:10:23;14.70;99.90
19330;DHT22;9799;48.214;16.388;2023-03-31T09:17:40;14.70;99.90
19330;DHT22;9799;48.214;16.388;2023-03-31T09:21:09;14.60;99.90
19330;DHT22;9799;48.214;16.388;2023-03-31T09:24:35;14.70;99.90
19330;DHT22;9799;48.214;16.388;2023-03-31T09:28:00;14.60;99.90
19330;DHT22;9799;48.214;16.388;2023-03-31T09:31:23;14.60;99.90
19330;DHT22;9799;48.214;16.388;2023-03-31T09:34:49;14.70;99.90
19330;DHT22;9799;48.214;16.388;2023-03-31T09:38:13;14.70;99.90
19330;DHT22;9799;48.214;16.388;2023-03-31T09:41:34;14.70;99.90
19330;DHT22;9799;48.214;16.388;2023-03-31T09:44:56;14.70;99.90
19330;DHT22;9799;48.214;16.388;2023-03-31T09:48:19;14.90;99.90
19330;DHT22;9799;48.214;16.388;2023-03-31T09:51:45;15.00;99.90
19330;DHT22;9799;48.214;16.388;2023-03-31T09:55:17;15.00;99.90
19330;DHT22;9799;48.214;16.388;2023-03-31T09:58:40;15.00;99.90
19330;DHT22;9799;48.214;16.388;2023-03-31T10:02:05;15.00;99.90
19330;DHT22;9799;48.214;16.388;2023-03-31T10:05:37;15.00;99.90
19330;DHT22;9799;48.214;16.388;2023-03-31T10:09:02;15.00;99.90
19330;DHT22;9799;48.214;16.388;2023-03-31T10:12:27;15.10;99.90
19330;DHT22;9799;48.214;16.388;2023-03-31T10:15:52;15.10;99.90
19330;DHT22;9799;48.214;16.388;2023-03-31T10:19:18;15.10;99.90
19330;DHT22;9799;48.214;16.388;2023-03-31T10:22:43;15.10;99.90
19330;DHT22;9799;48.214;16.388;2023-03-31T10:26:10;15.10;99.90
19330;DHT22;9799;48.214;16.388;2023-03-31T10:29:33;15.20;99.90
19330;DHT22;9799;48.214;16.388;2023-03-31T10:32:55;15.20;99.90
19330;DHT22;9799;48.214;16.388;2023-03-31T10:36:20;15.20;99.90
19330;DHT22;9799;48.214;16.388;2023-03-31T10:39:43;15.20;99.90
19330;DHT22;9799;48.214;16.388;2023-03-31T10:43:14;15.20;99.90
19330;DHT22;9799;48.214;16.388;2023-03-31T10:46:41;15.30;99.90
19330;DHT22;9799;48.214;16.388;2023-03-31T10:50:05;15.40;99.90
19330;DHT22;9799;48.214;16.388;2023-03-31T10:53:39;15.50;99.90
19330;DHT22;9799;48.214;16.388;2023-03-31T10:57:01;15.40;99.90
19330;DHT22;9799;48.214;16.388;2023-03-31T11:00:30;15.50;99.90
19330;DHT22;9799;48.214;16.388;2023-03-31T11:07:55;15.50;99.90
19330;DHT22;9799;48.214;16.388;2023-03-31T11:11:37;15.50;99.90
19330;DHT22;9799;48.214;16.388;2023-03-31T11:15:13;15.60;99.90
19330;DHT22;9799;48.214;16.388;2023-03-31T11:18:54;15.60;99.90
19330;DHT22;9799;48.214;16.388;2023-03-31T11:22:25;15.40;99.90
19330;DHT22;9799;48.214;16.388;2023-03-31T11:25:54;15.50;99.90
19330;DHT22;9799;48.214;16.388;2023-03-31T11:29:29;15.60;99.90
19330;DHT22;9799;48.214;16.388;2023-03-31T11:33:03;15.90;99.90
19330;DHT22;9799;48.214;16.388;2023-03-31T11:40:26;16.20;99.90
19330;DHT22;9799;48.214;16.388;2023-03-31T11:43:51;16.30;99.90
19330;DHT22;9799;48.214;16.388;2023-03-31T11:47:17;16.40;99.90
19330;DHT22;9799;48.214;16.388;2023-03-31T11:50:40;16.60;99.90
19330;DHT22;9799;48.214;16.388;2023-03-31T11:54:09;16.60;99.90
19330;DHT22;9799;48.214;16.388;2023-03-31T11:57:39;16.60;99.90
19330;DHT22;9799;48.214;16.388;2023-03-31T12:01:08;16.70;99.90
19330;DHT22;9799;48.214;16.388;2023-03-31T12:04:35;17.00;99.90
19330;DHT22;9799;48.214;16.388;2023-03-31T12:08:02;17.50;99.90
19330;DHT22;9799;48.214;16.388;2023-03-31T12:11:32;17.60;99.90
19330;DHT22;9799;48.214;16.388;2023-03-31T12:15:10;17.30;99.90
19330;DHT22;9799;48.214;16.388;2023-03-31T12:18:35;17.20;99.90
19330;DHT22;9799;48.214;16.388;2023-03-31T12:22:04;17.10;99.90
19330;DHT22;9799;48.214;16.388;2023-03-31T12:25:40;16.90;99.90
19330;DHT22;9799;48.214;16.388;2023-03-31T12:29:09;16.90;99.90
19330;DHT22;9799;48.214;16.388;2023-03-31T12:32:36;16.80;99.90
19330;DHT22;9799;48.214;16.388;2023-03-31T12:36:10;16.60;99.90
19330;DHT22;9799;48.214;16.388;2023-03-31T12:39:40;16.60;99.90
19330;DHT22;9799;48.214;16.388;2023-03-31T12:43:20;16.60;99.90
19330;DHT22;9799;48.214;16.388;2023-03-31T12:47:09;16.60;99.90
19330;DHT22;9799;48.214;16.388;2023-03-31T12:50:50;16.60;99.90
19330;DHT22;9799;48.214;16.388;2023-03-31T12:54:23;16.70;99.90
19330;DHT22;9799;48.214;16.388;2023-03-31T12:57:46;16.40;99.90
19330;DHT22;9799;48.214;16.388;2023-03-31T13:01:10;16.80;99.90
19330;DHT22;9799;48.214;16.388;2023-03-31T13:04:35;17.00;99.90
19330;DHT22;9799;48.214;16.388;2023-03-31T13:07:56;17.10;99.90
19330;DHT22;9799;48.214;16.388;2023-03-31T13:11:18;17.10;99.90
19330;DHT22;9799;48.214;16.388;2023-03-31T13:14:42;17.10;99.90
19330;DHT22;9799;48.214;16.388;2023-03-31T13:18:05;17.40;99.90
19330;DHT22;9799;48.214;16.388;2023-03-31T13:21:28;17.30;99.90
19330;DHT22;9799;48.214;16.388;2023-03-31T13:24:49;17.60;99.90
19330;DHT22;9799;48.214;16.388;2023-03-31T13:28:17;17.80;99.90
19330;DHT22;9799;48.214;16.388;2023-03-31T13:32:19;17.80;99.90
19330;DHT22;9799;48.214;16.388;2023-03-31T13:35:45;17.80;99.30
19330;DHT22;9799;48.214;16.388;2023-03-31T13:39:32;17.70;99.90
19330;DHT22;9799;48.214;16.388;2023-03-31T13:43:13;17.90;98.10
19330;DHT22;9799;48.214;16.388;2023-03-31T13:47:01;18.00;97.90
19330;DHT22;9799;48.214;16.388;2023-03-31T13:50:36;18.10;97.00
19330;DHT22;9799;48.214;16.388;2023-03-31T13:54:31;18.00;95.00
19330;DHT22;9799;48.214;16.388;2023-03-31T13:58:19;18.00;92.90
19330;DHT22;9799;48.214;16.388;2023-03-31T14:01:54;18.30;88.90
19330;DHT22;9799;48.214;16.388;2023-03-31T14:05:33;18.30;88.20
19330;DHT22;9799;48.214;16.388;2023-03-31T14:09:01;18.30;88.20
19330;DHT22;9799;48.214;16.388;2023-03-31T14:12:31;18.20;86.60
19330;DHT22;9799;48.214;16.388;2023-03-31T14:15:54;18.10;86.10
19330;DHT22;9799;48.214;16.388;2023-03-31T14:19:49;17.90;86.00
19330;DHT22;9799;48.214;16.388;2023-03-31T14:23:28;17.70;88.00
19330;DHT22;9799;48.214;16.388;2023-03-31T14:26:59;17.70;87.30
19330;DHT22;9799;48.214;16.388;2023-03-31T14:30:32;17.70;88.40
19330;DHT22;9799;48.214;16.388;2023-03-31T14:34:19;17.50;87.60
19330;DHT22;9799;48.214;16.388;2023-03-31T14:37:44;17.50;88.00
19330;DHT22;9799;48.214;16.388;2023-03-31T14:41:15;17.40;89.10
19330;DHT22;9799;48.214;16.388;2023-03-31T14:44:39;17.40;90.00
19330;DHT22;9799;48.214;16.388;2023-03-31T14:48:10;17.30;90.40
19330;DHT22;9799;48.214;16.388;2023-03-31T14:51:32;17.20;90.40
19330;DHT22;9799;48.214;16.388;2023-03-31T14:54:54;17.30;90.90
19330;DHT22;9799;48.214;16.388;2023-03-31T14:58:20;17.20;90.80
19330;DHT22;9799;48.214;16.388;2023-03-31T15:01:45;17.20;91.20
19330;DHT22;9799;48.214;16.388;2023-03-31T15:05:20;17.20;91.40
19330;DHT22;9799;48.214;16.388;2023-03-31T15:08:44;17.10;91.40
19330;DHT22;9799;48.214;16.388;2023-03-31T15:12:09;17.10;91.40
19330;DHT22;9799;48.214;16.388;2023-03-31T15:15:32;17.10;92.00
19330;DHT22;9799;48.214;16.388;2023-03-31T15:18:53;17.00;91.80
19330;DHT22;9799;48.214;16.388;2023-03-31T15:22:17;16.90;91.10
19330;DHT22;9799;48.214;16.388;2023-03-31T15:25:41;16.90;90.90
19330;DHT22;9799;48.214;16.388;2023-03-31T15:29:07;16.80;90.00
19330;DHT22;9799;48.214;16.388;2023-03-31T15:32:31;16.20;94.30
19330;DHT22;9799;48.214;16.388;2023-03-31T15:35:56;15.10;97.80
19330;DHT22;9799;48.214;16.388;2023-03-31T15:39:18;14.80;99.90
19330;DHT22;9799;48.214;16.388;2023-03-31T15:42:40;14.60;99.90
19330;DHT22;9799;48.214;16.388;2023-03-31T15:46:01;14.30;99.90
19330;DHT22;9799;48.214;16.388;2023-03-31T15:49:23;14.20;99.90
19330;DHT22;9799;48.214;16.388;2023-03-31T15:52:47;14.10;99.90
19330;DHT22;9799;48.214;16.388;2023-03-31T15:56:24;14.00;99.90
19330;DHT22;9799;48.214;16.388;2023-03-31T15:59:49;13.90;99.90
19330;DHT22;9799;48.214;16.388;2023-03-31T16:03:17;14.00;99.90
19330;DHT22;9799;48.214;16.388;2023-03-31T16:06:42;14.10;99.90
19330;DHT22;9799;48.214;16.388;2023-03-31T16:10:09;14.10;99.90
19330;DHT22;9799;48.214;16.388;2023-03-31T16:13:38;14.00;99.90
19330;DHT22;9799;48.214;16.388;2023-03-31T16:17:03;14.00;99.90
19330;DHT22;9799;48.214;16.388;2023-03-31T16:20:29;14.10;99.90
19330;DHT22;9799;48.214;16.388;2023-03-31T16:23:54;14.00;99.90
19330;DHT22;9799;48.214;16.388;2023-03-31T16:27:16;14.00;99.90
19330;DHT22;9799;48.214;16.388;2023-03-31T16:30:40;14.00;99.90
19330;DHT22;9799;48.214;16.388;2023-03-31T16:34:03;13.80;99.90
19330;DHT22;9799;48.214;16.388;2023-03-31T16:37:25;14.00;99.90
19330;DHT22;9799;48.214;16.388;2023-03-31T16:40:48;14.00;99.90
19330;DHT22;9799;48.214;16.388;2023-03-31T16:44:10;14.00;99.90
19330;DHT22;9799;48.214;16.388;2023-03-31T16:47:33;14.00;99.90
19330;DHT22;9799;48.214;16.388;2023-03-31T16:50:55;13.80;99.90
19330;DHT22;9799;48.214;16.388;2023-03-31T16:54:16;13.80;99.90
19330;DHT22;9799;48.214;16.388;2023-03-31T16:57:38;13.70;99.90
19330;DHT22;9799;48.214;16.388;2023-03-31T17:01:00;13.80;99.90
19330;DHT22;9799;48.214;16.388;2023-03-31T17:04:23;13.80;99.90
19330;DHT22;9799;48.214;16.388;2023-03-31T17:07:45;13.90;99.90
19330;DHT22;9799;48.214;16.388;2023-03-31T17:11:08;13.90;99.90
19330;DHT22;9799;48.214;16.388;2023-03-31T17:14:30;13.90;99.90
19330;DHT22;9799;48.214;16.388;2023-03-31T17:17:52;13.90;99.90
19330;DHT22;9799;48.214;16.388;2023-03-31T17:21:15;14.10;99.90
19330;DHT22;9799;48.214;16.388;2023-03-31T17:24:37;14.00;99.90
19330;DHT22;9799;48.214;16.388;2023-03-31T17:27:59;14.00;99.90
19330;DHT22;9799;48.214;16.388;2023-03-31T17:31:21;14.10;99.90
19330;DHT22;9799;48.214;16.388;2023-03-31T17:34:43;14.10;99.90
19330;DHT22;9799;48.214;16.388;2023-03-31T17:38:09;14.20;99.90
19330;DHT22;9799;48.214;16.388;2023-03-31T17:41:32;14.20;99.90
19330;DHT22;9799;48.214;16.388;2023-03-31T17:44:53;14.10;99.90
19330;DHT22;9799;48.214;16.388;2023-03-31T17:48:17;14.10;99.90
19330;DHT22;9799;48.214;16.388;2023-03-31T17:51:39;14.10;99.90
19330;DHT22;9799;48.214;16.388;2023-03-31T17:55:02;14.10;99.90
19330;DHT22;9799;48.214;16.388;2023-03-31T17:58:24;14.10;99.90
19330;DHT22;9799;48.214;16.388;2023-03-31T18:01:46;14.10;99.90
19330;DHT22;9799;48.214;16.388;2023-03-31T18:05:08;14.00;99.90
19330;DHT22;9799;48.214;16.388;2023-03-31T18:08:31;14.00;99.90
19330;DHT22;9799;48.214;16.388;2023-03-31T18:11:54;13.90;99.90
19330;DHT22;9799;48.214;16.388;2023-03-31T18:15:17;14.00;99.90
19330;DHT22;9799;48.214;16.388;2023-03-31T18:18:39;13.90;99.90
19330;DHT22;9799;48.214;16.388;2023-03-31T18:22:01;14.00;99.90
19330;DHT22;9799;48.214;16.388;2023-03-31T18:25:22;13.90;99.90
19330;DHT22;9799;48.214;16.388;2023-03-31T18:28:45;14.00;99.90
19330;DHT22;9799;48.214;16.388;2023-03-31T18:32:07;14.00;99.90
19330;DHT22;9799;48.214;16.388;2023-03-31T18:35:29;14.00;99.90
19330;DHT22;9799;48.214;16.388;2023-03-31T18:38:51;14.00;99.90
19330;DHT22;9799;48.214;16.388;2023-03-31T18:42:14;14.00;99.90
19330;DHT22;9799;48.214;16.388;2023-03-31T18:45:39;13.90;99.90
19330;DHT22;9799;48.214;16.388;2023-03-31T18:49:02;13.90;99.90
19330;DHT22;9799;48.214;16.388;2023-03-31T18:52:24;14.00;99.90
19330;DHT22;9799;48.214;16.388;2023-03-31T18:55:48;13.90;99.90
19330;DHT22;9799;48.214;16.388;2023-03-31T18:59:10;13.90;99.90
19330;DHT22;9799;48.214;16.388;2023-03-31T19:02:34;13.90;99.90
19330;DHT22;9799;48.214;16.388;2023-03-31T19:06:04;14.00;99.90
19330;DHT22;9799;48.214;16.388;2023-03-31T19:09:29;13.90;99.90
19330;DHT22;9799;48.214;16.388;2023-03-31T19:12:51;13.90;99.90
19330;DHT22;9799;48.214;16.388;2023-03-31T19:16:16;14.00;99.90
19330;DHT22;9799;48.214;16.388;2023-03-31T19:19:39;13.90;99.90
19330;DHT22;9799;48.214;16.388;2023-03-31T19:23:02;13.90;99.90
19330;DHT22;9799;48.214;16.388;2023-03-31T19:26:24;13.90;99.90
19330;DHT22;9799;48.214;16.388;2023-03-31T19:29:48;13.90;99.90
19330;DHT22;9799;48.214;16.388;2023-03-31T19:33:10;13.90;99.90
19330;DHT22;9799;48.214;16.388;2023-03-31T19:36:34;13.90;99.90
19330;DHT22;9799;48.214;16.388;2023-03-31T19:39:56;13.90;99.90
19330;DHT22;9799;48.214;16.388;2023-03-31T19:43:19;13.90;99.90
19330;DHT22;9799;48.214;16.388;2023-03-31T19:46:42;13.90;99.90
19330;DHT22;9799;48.214;16.388;2023-03-31T19:50:06;13.90;99.90
19330;DHT22;9799;48.214;16.388;2023-03-31T19:53:29;13.80;99.90
19330;DHT22;9799;48.214;16.388;2023-03-31T19:56:52;13.70;99.90
19330;DHT22;9799;48.214;16.388;2023-03-31T20:00:14;13.70;99.90
19330;DHT22;9799;48.214;16.388;2023-03-31T20:03:38;13.70;99.90
19330;DHT22;9799;48.214;16.388;2023-03-31T20:07:01;13.80;99.90
19330;DHT22;9799;48.214;16.388;2023-03-31T20:10:25;13.80;99.90
19330;DHT22;9799;48.214;16.388;2023-03-31T20:13:47;13.70;99.90
19330;DHT22;9799;48.214;16.388;2023-03-31T20:17:09;13.60;99.90
19330;DHT22;9799;48.214;16.388;2023-03-31T20:20:33;13.60;99.90
19330;DHT22;9799;48.214;16.388;2023-03-31T20:23:56;13.50;99.90
19330;DHT22;9799;48.214;16.388;2023-03-31T20:27:19;13.50;99.90
19330;DHT22;9799;48.214;16.388;2023-03-31T20:30:45;13.60;99.90
19330;DHT22;9799;48.214;16.388;2023-03-31T20:34:09;13.40;99.90
19330;DHT22;9799;48.214;16.388;2023-03-31T20:37:32;13.50;99.90
19330;DHT22;9799;48.214;16.388;2023-03-31T20:40:54;13.50;99.90
19330;DHT22;9799;48.214;16.388;2023-03-31T20:44:18;13.60;99.90
19330;DHT22;9799;48.214;16.388;2023-03-31T20:47:40;13.50;99.90
19330;DHT22;9799;48.214;16.388;2023-03-31T20:51:03;13.40;99.90
19330;DHT22;9799;48.214;16.388;2023-03-31T20:54:25;13.40;99.90
19330;DHT22;9799;48.214;16.388;2023-03-31T20:57:47;13.40;99.90
19330;DHT22;9799;48.214;16.388;2023-03-31T21:01:10;13.40;99.90
19330;DHT22;9799;48.214;16.388;2023-03-31T21:04:31;13.30;99.90
19330;DHT22;9799;48.214;16.388;2023-03-31T21:07:53;13.30;99.90
19330;DHT22;9799;48.214;16.388;2023-03-31T21:11:16;13.30;99.90
19330;DHT22;9799;48.214;16.388;2023-03-31T21:14:37;13.30;99.90
19330;DHT22;9799;48.214;16.388;2023-03-31T21:17:59;13.20;99.90
19330;DHT22;9799;48.214;16.388;2023-03-31T21:21:21;13.20;99.90
19330;DHT22;9799;48.214;16.388;2023-03-31T21:24:43;13.20;99.90
19330;DHT22;9799;48.214;16.388;2023-03-31T21:28:04;13.10;99.90
19330;DHT22;9799;48.214;16.388;2023-03-31T21:31:25;13.20;99.90
19330;DHT22;9799;48.214;16.388;2023-03-31T21:34:48;13.20;99.90
19330;DHT22;9799;48.214;16.388;2023-03-31T21:38:09;13.20;99.90
19330;DHT22;9799;48.214;16.388;2023-03-31T21:41:31;13.20;99.90
19330;DHT22;9799;48.214;16.388;2023-03-31T21:44:52;13.10;99.90
19330;DHT22;9799;48.214;16.388;2023-03-31T21:48:18;13.20;99.90
19330;DHT22;9799;48.214;16.388;2023-03-31T21:51:45;13.20;99.90
19330;DHT22;9799;48.214;16.388;2023-03-31T21:55:07;13.20;99.90
19330;DHT22;9799;48.214;16.388;2023-03-31T21:58:28;13.20;99.90